KABY/ABY METAR and TAF weather

Enter ICAO airport designator
Station Type Date Time Source
KABY METAR 2024/07/23 16:53 UTC NOAA

KABY 231653Z VRB05KT 10SM BKN028 BKN035 BKN049 31/22 A3014 RMK AO2 SLP205 T03110222


Station Type Date Time Source
KABY Decoded METAR 2024/07/23 16:53 UTC NOAA

ALBANY SOUTHWEST GEORGIA, GA, United States (KABY) 31-32N 084-12W 58M
Jul 23, 2024 - 12:53 PM EDT / 2024.07.23 1653 UTC
Wind: Variable at 6 MPH (5 KT):0
Visibility: 10 mile(s):0
Sky conditions: mostly cloudy
Temperature: 88.0 F (31.1 C)
Heat index: 94.6 F (34.8 C):1
Dew Point: 72.0 F (22.2 C)
Relative Humidity: 59%
Pressure (altimeter): 30.14 in. Hg (1020 hPa)
ob: KABY 231653Z VRB05KT 10SM BKN028 BKN035 BKN049 31/22 A3014 RMK AO2 SLP205 T03110222
cycle: 17

Station Type Date Time Source
KABY TAF 2024/07/23 15:58 UTC NOAA